createdAt,value
2018-04-12T00:01:45.629Z,12.00
2018-04-12T00:04:13.495Z,12.00
2018-04-12T00:06:41.362Z,12.10
2018-04-12T00:09:09.229Z,12.20
2018-04-12T00:11:37.097Z,12.20
2018-04-12T00:14:04.963Z,12.30
2018-04-12T00:16:32.831Z,12.40
2018-04-12T00:19:00.698Z,12.40
2018-04-12T00:21:28.565Z,12.40
2018-04-12T00:23:56.293Z,12.40
2018-04-12T00:26:24.096Z,12.50
2018-04-12T00:28:51.966Z,12.50
2018-04-12T00:31:19.831Z,12.50
2018-04-12T00:33:47.697Z,12.50
2018-04-12T00:36:15.564Z,12.60
2018-04-12T00:38:44.105Z,12.60
2018-04-12T00:41:11.821Z,12.60
2018-04-12T00:43:39.548Z,12.60
2018-04-12T00:46:07.273Z,12.60
2018-04-12T00:48:35.751Z,12.50
2018-04-12T00:51:04.272Z,12.50
2018-04-12T00:53:43.752Z,12.50
2018-04-12T00:56:11.614Z,12.50
2018-04-12T00:58:39.480Z,12.50
2018-04-12T01:01:07.346Z,12.40
2018-04-12T01:03:35.825Z,12.50
2018-04-12T01:06:03.569Z,12.50
2018-04-12T01:08:31.289Z,12.50
2018-04-12T01:10:59.773Z,12.60
2018-04-12T01:13:28.258Z,12.60
2018-04-12T01:15:56.907Z,12.60
2018-04-12T01:18:24.774Z,12.60
2018-04-12T01:20:52.648Z,12.60
2018-04-12T01:23:20.510Z,12.60
2018-04-12T01:25:48.375Z,12.60
2018-04-12T01:28:16.243Z,12.50
2018-04-12T01:30:44.110Z,12.40
2018-04-12T01:33:16.894Z,12.40
2018-04-12T01:35:44.661Z,12.40
2018-04-12T01:38:12.384Z,12.40
2018-04-12T01:40:40.114Z,12.40
2018-04-12T01:43:08.772Z,12.30
2018-04-12T01:45:36.644Z,12.30
2018-04-12T01:48:04.372Z,12.30
2018-04-12T01:50:32.270Z,12.40
2018-04-12T01:53:00.139Z,12.40
2018-04-12T01:55:28.005Z,12.40
2018-04-12T01:57:55.872Z,12.50
2018-04-12T02:00:23.592Z,12.50
2018-04-12T02:02:51.313Z,12.50
2018-04-12T02:05:19.038Z,12.50
2018-04-12T02:07:46.830Z,12.50
2018-04-12T02:10:14.698Z,12.50
2018-04-12T02:12:42.565Z,12.50
2018-04-12T02:15:10.433Z,12.60
2018-04-12T02:17:38.300Z,12.60
2018-04-12T02:20:06.028Z,12.60
2018-04-12T02:22:33.935Z,12.70
2018-04-12T02:25:01.806Z,12.70
2018-04-12T02:27:29.693Z,12.70
2018-04-12T02:29:57.533Z,12.60
2018-04-12T02:32:25.400Z,12.60
2018-04-12T02:34:53.268Z,12.70
2018-04-12T02:37:21.135Z,12.60
2018-04-12T02:39:49.002Z,12.70
2018-04-12T02:42:16.870Z,12.70
2018-04-12T02:44:44.738Z,12.70
2018-04-12T02:47:12.604Z,12.70
2018-04-12T02:49:40.472Z,12.70
2018-04-12T02:52:08.340Z,12.70
2018-04-12T02:54:36.207Z,12.80
2018-04-12T02:57:04.074Z,12.90
2018-04-12T02:59:31.947Z,12.90
2018-04-12T03:01:59.813Z,12.90
2018-04-12T03:04:27.679Z,12.90
2018-04-12T03:06:55.547Z,12.90
2018-04-12T03:09:23.350Z,12.90
2018-04-12T03:11:51.995Z,12.90
2018-04-12T03:14:19.864Z,12.90
2018-04-12T03:16:47.732Z,13.00
2018-04-12T03:19:15.601Z,12.90
2018-04-12T03:21:43.465Z,12.90
2018-04-12T03:24:11.331Z,12.90
2018-04-12T03:26:39.043Z,13.10
2018-04-12T03:29:07.534Z,13.10
2018-04-12T03:31:35.257Z,13.10
2018-04-12T03:34:02.981Z,13.10
2018-04-12T03:36:30.723Z,13.10
2018-04-12T03:38:58.470Z,13.10
2018-04-12T03:41:26.963Z,13.10
2018-04-12T03:43:54.685Z,13.10
2018-04-12T03:46:22.417Z,13.10
2018-04-12T03:48:50.311Z,13.10
2018-04-12T03:51:18.178Z,13.10
2018-04-12T03:53:46.046Z,13.10
2018-04-12T03:56:13.913Z,13.10
2018-04-12T03:58:41.637Z,13.00
2018-04-12T04:01:09.358Z,13.00
2018-04-12T04:03:37.084Z,13.00
2018-04-12T04:06:04.821Z,13.00
2018-04-12T04:08:32.636Z,12.90
2018-04-12T04:11:00.502Z,12.90
2018-04-12T04:13:28.370Z,12.90
2018-04-12T04:16:08.014Z,12.90
2018-04-12T04:18:47.759Z,12.80
2018-04-12T04:21:16.657Z,12.80
2018-04-12T04:23:44.518Z,12.70
2018-04-12T04:26:12.249Z,12.70
2018-04-12T04:28:40.048Z,12.70
2018-04-12T04:31:07.917Z,12.70
2018-04-12T04:33:38.005Z,12.60
2018-04-12T04:36:08.420Z,12.70
2018-04-12T04:41:53.160Z,12.60
2018-04-12T04:44:36.380Z,12.60
2018-04-12T04:47:04.240Z,12.60
2018-04-12T04:49:32.109Z,12.60
2018-04-12T04:52:03.440Z,12.60
2018-04-12T04:54:34.291Z,12.60
2018-04-12T04:57:20.069Z,12.60
2018-04-12T04:59:50.402Z,12.60
2018-04-12T05:02:21.156Z,12.60
2018-04-12T05:04:51.514Z,12.70
2018-04-12T05:07:22.038Z,12.70
2018-04-12T05:09:53.293Z,12.80
2018-04-12T05:12:23.780Z,12.70
2018-04-12T05:14:55.229Z,12.80
2018-04-12T05:17:26.928Z,12.80
2018-04-12T05:19:57.639Z,12.80
2018-04-12T05:22:28.825Z,13.00
2018-04-12T05:24:59.266Z,13.00
2018-04-12T05:27:29.092Z,13.10
2018-04-12T05:29:57.074Z,13.00
2018-04-12T05:32:24.938Z,13.10
2018-04-12T05:34:52.702Z,13.10
2018-04-12T05:37:20.404Z,13.20
2018-04-12T05:39:48.885Z,13.30
2018-04-12T05:42:17.377Z,13.30
2018-04-12T05:44:45.862Z,13.30
2018-04-12T05:47:13.677Z,13.30
2018-04-12T05:49:41.548Z,13.40
2018-04-12T05:52:09.411Z,13.40
2018-04-12T05:54:37.278Z,13.50
2018-04-12T05:57:05.005Z,13.60
2018-04-12T05:59:32.728Z,13.80
2018-04-12T06:02:00.573Z,13.80
2018-04-12T06:04:28.300Z,13.80
2018-04-12T06:06:56.016Z,13.90
2018-04-12T06:09:23.871Z,13.90
2018-04-12T06:11:51.737Z,13.90
2018-04-12T06:14:19.648Z,14.00
2018-04-12T06:16:48.129Z,14.30
2018-04-12T06:19:16.774Z,14.60
2018-04-12T06:21:44.639Z,14.50
2018-04-12T06:24:12.360Z,14.70
2018-04-12T06:26:40.077Z,15.10
2018-04-12T06:29:07.935Z,15.50
2018-04-12T06:31:35.802Z,15.80
2018-04-12T06:34:03.537Z,16.00
2018-04-12T06:36:31.254Z,16.20
2018-04-12T06:38:58.973Z,16.20
2018-04-12T06:41:26.693Z,16.30
2018-04-12T06:43:55.192Z,16.20
2018-04-12T06:46:22.904Z,16.20
2018-04-12T06:48:50.620Z,16.60
2018-04-12T06:51:18.340Z,16.80
2018-04-12T06:53:46.095Z,17.30
2018-04-12T06:56:13.845Z,17.90
2018-04-12T06:58:41.729Z,18.60
2018-04-12T07:01:09.593Z,19.00
2018-04-12T07:03:37.312Z,19.70
2018-04-12T07:06:05.057Z,20.70
2018-04-12T07:08:33.542Z,23.00
2018-04-12T07:11:02.025Z,23.90
2018-04-12T07:13:30.669Z,24.70
2018-04-12T07:15:58.537Z,24.70
2018-04-12T07:18:26.406Z,25.30
2018-04-12T07:20:54.272Z,26.50
2018-04-12T07:23:22.138Z,27.60
2018-04-12T07:25:50.007Z,27.70
2018-04-12T07:28:17.720Z,28.90
2018-04-12T07:30:45.444Z,29.80
2018-04-12T07:33:13.174Z,30.00
2018-04-12T07:35:40.902Z,30.00
2018-04-12T07:38:09.432Z,28.20
2018-04-12T07:40:37.312Z,28.20
2018-04-12T07:43:05.036Z,27.40
2018-04-12T07:45:32.780Z,26.60
2018-04-12T07:48:01.309Z,25.30
2018-04-12T07:50:29.117Z,25.20
2018-04-12T07:52:57.059Z,25.20
2018-04-12T07:55:24.872Z,25.20
2018-04-12T07:57:53.404Z,24.60
2018-04-12T08:00:21.204Z,24.60
2018-04-12T08:02:49.861Z,23.60
2018-04-12T08:05:17.661Z,23.60
2018-04-12T08:07:46.144Z,23.60
2018-04-12T08:10:14.623Z,22.80
2018-04-12T08:12:43.137Z,22.30
2018-04-12T08:15:10.897Z,22.30
2018-04-12T08:17:38.637Z,22.00
2018-04-12T08:20:07.173Z,22.30
2018-04-12T08:22:34.888Z,22.30
2018-04-12T08:25:03.400Z,23.10
2018-04-12T08:27:31.112Z,23.10
2018-04-12T08:29:58.841Z,23.20
2018-04-12T08:32:26.564Z,23.40
2018-04-12T08:34:55.057Z,23.60
2018-04-12T08:37:22.770Z,23.60
2018-04-12T08:39:50.634Z,22.80
2018-04-12T08:42:18.344Z,21.70
2018-04-12T08:44:46.921Z,21.30
2018-04-12T08:47:15.478Z,21.30
2018-04-12T08:49:44.201Z,21.30
2018-04-12T08:52:12.688Z,21.30
2018-04-12T08:54:40.408Z,21.20
2018-04-12T08:57:08.277Z,21.50
2018-04-12T08:59:36.013Z,21.90
2018-04-12T09:02:03.740Z,22.00
2018-04-12T09:04:32.228Z,23.20
2018-04-12T09:07:00.861Z,23.50
2018-04-12T09:09:28.566Z,23.50
2018-04-12T09:11:57.040Z,23.70
2018-04-12T09:14:25.533Z,23.70
2018-04-12T09:16:54.183Z,23.40
2018-04-12T09:19:21.968Z,23.40
2018-04-12T09:21:49.741Z,23.60
2018-04-12T09:24:18.258Z,23.40
2018-04-12T09:26:46.014Z,23.40
2018-04-12T09:29:13.720Z,23.60
2018-04-12T09:31:41.433Z,23.10
2018-04-12T09:34:09.149Z,23.10
2018-04-12T09:36:36.861Z,23.00
2018-04-12T09:39:06.473Z,22.90
2018-04-12T09:41:34.200Z,22.80
2018-04-12T09:44:01.945Z,22.90
2018-04-12T09:46:29.812Z,22.80
2018-04-12T09:48:57.678Z,23.10
2018-04-12T09:51:25.546Z,23.30
2018-04-12T09:53:53.414Z,23.60
2018-04-12T09:56:21.280Z,23.70
2018-04-12T09:58:49.045Z,23.90
2018-04-12T10:01:16.915Z,24.10
2018-04-12T10:03:44.701Z,24.20
2018-04-12T10:06:27.325Z,24.50
2018-04-12T10:09:01.715Z,24.20
2018-04-12T10:11:30.398Z,24.40
2018-04-12T10:13:58.266Z,24.40
2018-04-12T10:16:26.030Z,24.30
2018-04-12T10:18:53.901Z,24.30
2018-04-12T10:21:21.764Z,24.30
2018-04-12T10:23:49.632Z,24.20
2018-04-12T10:26:17.500Z,24.30
2018-04-12T10:28:45.382Z,24.00
2018-04-12T10:31:13.234Z,23.60
2018-04-12T10:33:41.101Z,23.40
2018-04-12T10:36:08.972Z,23.30
2018-04-12T10:38:36.722Z,23.20
2018-04-12T10:41:04.433Z,23.20
2018-04-12T10:43:32.928Z,22.60
2018-04-12T10:46:00.644Z,22.60
2018-04-12T10:48:28.510Z,22.50
2018-04-12T10:50:56.994Z,22.60
2018-04-12T10:53:24.756Z,22.60
2018-04-12T10:55:52.477Z,22.70
2018-04-12T10:58:20.197Z,22.80
2018-04-12T11:00:47.915Z,22.80
2018-04-12T11:03:15.645Z,22.90
2018-04-12T11:05:44.195Z,22.30
2018-04-12T11:08:12.062Z,22.30
2018-04-12T11:10:39.929Z,22.00
2018-04-12T11:13:07.796Z,21.80
2018-04-12T11:15:35.667Z,21.70
2018-04-12T11:18:03.531Z,21.70
2018-04-12T11:20:32.017Z,21.80
2018-04-12T11:22:59.879Z,21.80
2018-04-12T11:25:27.788Z,21.80
2018-04-12T11:27:56.434Z,21.50
2018-04-12T11:30:24.300Z,21.50
2018-04-12T11:32:52.167Z,21.50
2018-04-12T11:35:20.046Z,21.40
2018-04-12T11:37:48.721Z,21.10
2018-04-12T11:40:16.591Z,21.10
2018-04-12T11:42:44.313Z,21.00
2018-04-12T11:45:12.036Z,21.00
2018-04-12T11:47:39.756Z,21.20
2018-04-12T11:50:07.648Z,21.60
2018-04-12T11:52:35.516Z,22.30
2018-04-12T11:55:03.403Z,23.00
2018-04-12T11:57:31.895Z,23.60
2018-04-12T12:00:00.381Z,24.00
2018-04-12T12:02:28.860Z,24.20
2018-04-12T12:04:57.340Z,24.70
2018-04-12T12:07:25.047Z,24.70
2018-04-12T12:09:52.764Z,25.10
2018-04-12T12:12:20.534Z,25.60
2018-04-12T12:14:48.258Z,26.20
2018-04-12T12:17:16.135Z,26.90
2018-04-12T12:19:44.001Z,27.30
2018-04-12T12:22:11.801Z,27.80
2018-04-12T12:24:40.285Z,27.40
2018-04-12T12:27:08.768Z,26.80
2018-04-12T12:29:37.418Z,25.70
2018-04-12T12:32:05.150Z,25.70
2018-04-12T12:34:32.865Z,25.10
2018-04-12T12:37:00.573Z,24.80
2018-04-12T12:39:28.279Z,24.50
2018-04-12T12:41:55.993Z,23.90
2018-04-12T12:44:23.704Z,23.20
2018-04-12T12:46:51.425Z,22.70
2018-04-12T12:49:19.154Z,22.40
2018-04-12T12:51:46.867Z,22.20
2018-04-12T12:54:14.580Z,21.90
2018-04-12T12:56:42.318Z,21.70
2018-04-12T12:59:10.053Z,21.60
2018-04-12T13:01:37.774Z,21.50
2018-04-12T13:04:05.617Z,21.60
2018-04-12T13:06:33.482Z,21.60
2018-04-12T13:09:01.192Z,21.60
2018-04-12T13:11:29.669Z,21.90
2018-04-12T13:13:58.144Z,21.70
2018-04-12T13:16:26.629Z,21.80
2018-04-12T13:18:55.100Z,21.70
2018-04-12T13:21:22.812Z,21.60
2018-04-12T13:23:50.568Z,21.60
2018-04-12T13:26:18.277Z,21.60
2018-04-12T13:28:45.997Z,21.60
2018-04-12T13:31:13.756Z,21.70
2018-04-12T13:33:41.473Z,21.80
2018-04-12T13:36:09.183Z,21.90
2018-04-12T13:38:36.896Z,21.90
2018-04-12T13:41:04.608Z,21.90
2018-04-12T13:43:32.317Z,21.70
2018-04-12T13:46:00.089Z,21.70
2018-04-12T13:48:27.853Z,21.90
2018-04-12T13:50:55.561Z,21.90
2018-04-12T13:53:23.296Z,22.10
2018-04-12T13:55:51.789Z,22.50
2018-04-12T13:58:20.256Z,22.50
2018-04-12T14:00:48.012Z,22.50
2018-04-12T14:03:15.737Z,22.40
2018-04-12T14:05:43.449Z,22.20
2018-04-12T14:08:11.156Z,22.20
2018-04-12T14:10:38.877Z,22.20
2018-04-12T14:13:06.588Z,22.30
2018-04-12T14:15:34.300Z,22.40
2018-04-12T14:18:02.033Z,22.20
2018-04-12T14:20:29.749Z,22.00
2018-04-12T14:22:58.236Z,21.70
2018-04-12T14:25:26.733Z,21.70
2018-04-12T14:27:54.449Z,21.70
2018-04-12T14:30:22.178Z,21.80
2018-04-12T14:32:49.901Z,21.80
2018-04-12T14:35:18.389Z,22.30
2018-04-12T14:37:46.873Z,22.50
2018-04-12T14:40:14.594Z,22.50
2018-04-12T14:42:42.313Z,22.50
2018-04-12T14:45:10.020Z,22.70
2018-04-12T14:47:38.501Z,23.30
2018-04-12T14:50:06.220Z,23.30
2018-04-12T14:52:33.936Z,23.60
2018-04-12T14:55:01.644Z,23.50
2018-04-12T14:57:29.398Z,23.30
2018-04-12T14:59:57.885Z,23.50
2018-04-12T15:02:25.699Z,23.40
2018-04-12T15:04:53.437Z,23.50
2018-04-12T15:07:21.217Z,23.40
2018-04-12T15:09:48.950Z,23.40
2018-04-12T15:12:16.761Z,23.30
2018-04-12T15:14:44.625Z,23.20
2018-04-12T15:17:12.496Z,23.00
2018-04-12T15:19:40.360Z,22.90
2018-04-12T15:22:08.228Z,23.00
2018-04-12T15:24:36.095Z,23.10
2018-04-12T15:27:03.962Z,22.90
2018-04-12T15:29:31.830Z,22.90
2018-04-12T15:31:59.762Z,23.10
2018-04-12T15:34:28.382Z,23.50
2018-04-12T15:36:56.254Z,23.40
2018-04-12T15:39:24.117Z,23.60
2018-04-12T15:41:51.985Z,23.60
2018-04-12T15:44:19.852Z,23.50
2018-04-12T15:46:47.720Z,23.50
2018-04-12T15:49:15.587Z,23.40
2018-04-12T15:51:43.454Z,23.60
2018-04-12T15:54:11.327Z,23.70
2018-04-12T15:56:39.189Z,23.80
2018-04-12T15:59:07.056Z,24.00
2018-04-12T16:01:34.923Z,23.90
2018-04-12T16:04:02.790Z,23.90
2018-04-12T16:06:31.581Z,23.90
2018-04-12T16:08:59.447Z,23.80
2018-04-12T16:11:27.314Z,23.70
2018-04-12T16:13:55.181Z,23.60
2018-04-12T16:16:23.049Z,23.70
2018-04-12T16:18:50.919Z,23.70
2018-04-12T16:21:18.783Z,23.70
2018-04-12T16:23:46.651Z,23.50
2018-04-12T16:26:14.519Z,23.40
2018-04-12T16:28:42.386Z,23.40
2018-04-12T16:31:10.253Z,23.30
2018-04-12T16:33:38.120Z,23.30
2018-04-12T16:36:05.986Z,23.10
2018-04-12T16:38:33.854Z,22.80
2018-04-12T16:41:01.724Z,22.70
2018-04-12T16:43:29.591Z,22.70
2018-04-12T16:45:57.458Z,22.70
2018-04-12T16:48:25.328Z,22.60
2018-04-12T16:50:53.193Z,22.70
2018-04-12T16:53:21.145Z,22.70
2018-04-12T16:55:49.028Z,22.70
2018-04-12T16:58:16.897Z,22.70
2018-04-12T17:00:44.763Z,22.60
2018-04-12T17:03:12.631Z,22.60
2018-04-12T17:05:40.503Z,22.60
2018-04-12T17:08:09.603Z,22.50
2018-04-12T17:10:37.462Z,22.50
2018-04-12T17:13:05.329Z,22.40
2018-04-12T17:15:33.202Z,22.30
2018-04-12T17:18:01.063Z,22.20
2018-04-12T17:20:28.929Z,21.90
2018-04-12T17:22:56.798Z,21.70
2018-04-12T17:25:24.666Z,21.60
2018-04-12T17:27:52.532Z,21.50
2018-04-12T17:30:20.399Z,21.40
2018-04-12T17:32:48.268Z,21.30
2018-04-12T17:35:16.136Z,21.20
2018-04-12T17:37:44.007Z,21.10
2018-04-12T17:40:11.870Z,21.00
2018-04-12T17:42:39.736Z,20.90
2018-04-12T17:45:07.604Z,20.80
2018-04-12T17:47:35.471Z,20.60
2018-04-12T17:50:03.341Z,20.50
2018-04-12T17:52:31.206Z,20.30
2018-04-12T17:54:59.074Z,20.10
2018-04-12T17:57:26.945Z,19.90
2018-04-12T17:59:54.808Z,19.70
2018-04-12T18:02:22.674Z,19.50
2018-04-12T18:04:50.542Z,19.40
2018-04-12T18:07:18.648Z,19.20
2018-04-12T18:12:20.528Z,19.10
2018-04-12T18:14:49.116Z,19.00
2018-04-12T18:17:17.773Z,18.90
2018-04-12T18:19:45.632Z,18.80
2018-04-12T18:22:13.499Z,18.60
2018-04-12T18:24:41.370Z,18.30
2018-04-12T18:27:09.233Z,18.20
2018-04-12T18:29:37.100Z,18.10
2018-04-12T18:32:04.976Z,18.10
2018-04-12T18:34:32.834Z,18.10
2018-04-12T18:37:00.704Z,18.10
2018-04-12T18:39:28.569Z,18.10
2018-04-12T18:41:56.436Z,18.00
2018-04-12T18:44:24.304Z,18.00
2018-04-12T18:46:52.172Z,17.90
2018-04-12T18:49:20.039Z,17.90
2018-04-12T18:51:47.906Z,17.80
2018-04-12T18:54:15.775Z,17.40
2018-04-12T18:56:43.640Z,17.00
2018-04-12T18:59:11.560Z,17.00
2018-04-12T19:01:40.196Z,17.10
2018-04-12T19:04:08.061Z,17.10
2018-04-12T19:06:35.929Z,17.10
2018-04-12T19:09:03.807Z,17.00
2018-04-12T19:11:31.664Z,17.00
2018-04-12T19:13:59.532Z,17.00
2018-04-12T19:16:27.398Z,16.90
2018-04-12T19:18:55.265Z,16.80
2018-04-12T19:21:23.131Z,16.60
2018-04-12T19:23:50.861Z,16.50
2018-04-12T19:26:18.625Z,16.30
2018-04-12T19:28:46.430Z,16.10
2018-04-12T19:31:14.296Z,15.90
2018-04-12T19:33:42.162Z,15.90
2018-04-12T19:36:10.030Z,15.90
2018-04-12T19:38:37.896Z,15.90
2018-04-12T19:41:05.764Z,16.00
2018-04-12T19:43:33.532Z,16.00
2018-04-12T19:46:02.216Z,15.60
2018-04-12T19:48:30.692Z,15.60
2018-04-12T19:50:58.566Z,15.40
2018-04-12T19:53:26.573Z,15.30
2018-04-12T19:55:55.188Z,15.20
2018-04-12T19:58:23.190Z,15.20
2018-04-12T20:00:51.063Z,15.20
2018-04-12T20:03:18.924Z,15.30
2018-04-12T20:05:46.792Z,15.20
2018-04-12T20:08:14.659Z,15.10
2018-04-12T20:10:42.528Z,15.10
2018-04-12T20:13:10.394Z,15.20
2018-04-12T20:15:38.362Z,15.20
2018-04-12T20:18:06.532Z,15.30
2018-04-12T20:20:34.405Z,15.30
2018-04-12T20:23:02.271Z,15.20
2018-04-12T20:25:30.148Z,15.20
2018-04-12T20:27:58.064Z,15.20
2018-04-12T20:30:26.537Z,15.10
2018-04-12T20:32:55.015Z,15.10
2018-04-12T20:35:22.845Z,15.00
2018-04-12T20:37:50.704Z,14.90
2018-04-12T20:40:18.571Z,14.70
2018-04-12T20:42:46.293Z,14.60
2018-04-12T20:45:14.045Z,14.20
2018-04-12T20:47:42.685Z,14.00
2018-04-12T20:50:10.554Z,14.00
2018-04-12T20:52:38.420Z,14.10
2018-04-12T20:55:06.291Z,14.30
2018-04-12T20:57:34.157Z,14.40
2018-04-12T21:02:35.828Z,13.90
2018-04-12T21:05:03.695Z,13.70
2018-04-12T21:07:31.562Z,13.60
2018-04-12T21:09:59.430Z,13.70
2018-04-12T21:12:27.297Z,13.90
2018-04-12T21:14:55.164Z,14.00
2018-04-12T21:17:23.032Z,14.00
2018-04-12T21:19:50.899Z,14.00
2018-04-12T21:22:18.614Z,14.10
2018-04-12T21:24:46.430Z,14.00
2018-04-12T21:27:14.297Z,14.00
2018-04-12T21:29:42.164Z,13.90
2018-04-12T21:32:10.031Z,13.60
2018-04-12T21:34:37.821Z,13.50
2018-04-12T21:37:05.663Z,13.60
2018-04-12T21:39:33.531Z,13.60
2018-04-12T21:42:01.402Z,13.60
2018-04-12T21:44:29.127Z,13.60
2018-04-12T21:46:56.848Z,13.60
2018-04-12T21:49:24.694Z,13.60
2018-04-12T21:51:52.561Z,13.30
2018-04-12T21:54:20.429Z,13.10
2018-04-12T21:56:48.294Z,13.00
2018-04-12T21:59:16.162Z,12.90
2018-04-12T22:01:43.879Z,13.00
2018-04-12T22:04:11.594Z,13.00
2018-04-12T22:06:39.468Z,13.00
2018-04-12T22:09:07.325Z,13.10
2018-04-12T22:11:35.191Z,13.10
2018-04-12T22:14:03.060Z,13.00
2018-04-12T22:16:30.925Z,13.00
2018-04-12T22:18:58.728Z,12.90
2018-04-12T22:21:27.376Z,12.50
2018-04-12T22:23:55.244Z,12.50
2018-04-12T22:26:23.110Z,12.50
2018-04-12T22:28:50.977Z,12.60
2018-04-12T22:31:18.846Z,12.70
2018-04-12T22:33:46.717Z,12.70
2018-04-12T22:36:14.435Z,12.70
2018-04-12T22:38:42.346Z,12.70
2018-04-12T22:41:10.218Z,12.50
2018-04-12T22:43:38.080Z,12.40
2018-04-12T22:46:05.947Z,12.20
2018-04-12T22:48:33.816Z,12.30
2018-04-12T22:51:01.683Z,12.40
2018-04-12T22:53:29.551Z,12.40
2018-04-12T22:55:57.417Z,12.40
2018-04-12T22:58:25.285Z,12.40
2018-04-12T23:00:53.152Z,12.50
2018-04-12T23:03:21.022Z,12.50
2018-04-12T23:05:48.759Z,12.50
2018-04-12T23:08:16.651Z,12.50
2018-04-12T23:10:44.510Z,12.40
2018-04-12T23:13:12.388Z,12.00
2018-04-12T23:15:40.252Z,11.90
2018-04-12T23:18:08.120Z,12.10
2018-04-12T23:20:36.815Z,12.20
2018-04-12T23:23:04.674Z,12.20
2018-04-12T23:25:32.541Z,12.20
2018-04-12T23:28:00.427Z,12.20
2018-04-12T23:30:28.993Z,12.10
2018-04-12T23:32:56.860Z,12.00
2018-04-12T23:35:24.728Z,12.00
2018-04-12T23:37:52.593Z,12.00
2018-04-12T23:40:20.465Z,11.90
2018-04-12T23:42:48.328Z,11.80
2018-04-12T23:45:16.196Z,11.70
2018-04-12T23:47:44.064Z,11.50
2018-04-12T23:50:11.931Z,11.30
2018-04-12T23:52:39.799Z,11.10
2018-04-12T23:55:07.666Z,11.00
2018-04-12T23:57:35.533Z,10.90
